TimeCST,TemperatureF,Dew PointF,Humidity,Sea Level PressureIn,VisibilityMPH,Wind Direction,Wind SpeedMPH,Gust SpeedMPH,PrecipitationIn,Events,Conditions,WindDirDegrees,DateUTC
12:53 AM,50.0,30.0,46,30.19,8.0,NNE,23.0,31.1,N/A,,Clear,30,2012-11-23 06:53:00
1:53 AM,48.0,28.0,46,30.22,10.0,NNE,19.6,32.2,N/A,,Clear,30,2012-11-23 07:53:00
2:53 AM,46.9,21.9,37,30.25,10.0,NNE,24.2,32.2,N/A,,Clear,30,2012-11-23 08:53:00
3:53 AM,44.1,19.9,38,30.30,10.0,NNE,13.8,24.2,N/A,,Clear,30,2012-11-23 09:53:00
4:53 AM,43.0,21.9,43,30.34,10.0,NNE,12.7,-,N/A,,Clear,30,2012-11-23 10:53:00
5:53 AM,41.0,25.0,53,30.39,10.0,NNE,9.2,-,N/A,,Clear,30,2012-11-23 11:53:00
6:53 AM,37.9,25.0,60,30.43,10.0,North,9.2,-,N/A,,Partly Cloudy,10,2012-11-23 12:53:00
7:53 AM,37.9,25.0,60,30.45,10.0,NNE,11.5,-,N/A,,Scattered Clouds,20,2012-11-23 13:53:00
8:53 AM,43.0,25.0,49,30.48,10.0,NNE,10.4,19.6,N/A,,Scattered Clouds,30,2012-11-23 14:53:00
9:53 AM,48.0,21.9,36,30.50,10.0,NE,19.6,24.2,N/A,,Partly Cloudy,40,2012-11-23 15:53:00
10:53 AM,51.1,19.0,28,30.51,10.0,ENE,19.6,26.5,N/A,,Partly Cloudy,60,2012-11-23 16:53:00
11:53 AM,54.0,14.0,21,30.49,10.0,ENE,16.1,21.9,N/A,,Clear,60,2012-11-23 17:53:00
12:53 PM,54.0,14.0,21,30.47,10.0,ENE,12.7,20.7,N/A,,Clear,60,2012-11-23 18:53:00
1:53 PM,55.9,12.0,18,30.45,10.0,ENE,15.0,19.6,N/A,,Partly Cloudy,70,2012-11-23 19:53:00
2:53 PM,55.9,14.0,19,30.44,10.0,ENE,10.4,-,N/A,,Clear,60,2012-11-23 20:53:00
3:53 PM,55.0,14.0,20,30.43,10.0,ENE,5.8,-,N/A,,Clear,70,2012-11-23 21:53:00
4:53 PM,54.0,14.0,21,30.43,10.0,East,8.1,-,N/A,,Clear,90,2012-11-23 22:53:00
5:53 PM,48.0,12.9,24,30.45,10.0,East,5.8,-,N/A,,Clear,80,2012-11-23 23:53:00
6:53 PM,45.0,15.1,30,30.46,10.0,East,5.8,-,N/A,,Clear,90,2012-11-24 00:53:00
7:53 PM,43.0,12.9,30,30.46,10.0,East,4.6,-,N/A,,Clear,100,2012-11-24 01:53:00
8:53 PM,41.0,12.9,32,30.46,10.0,ESE,3.5,-,N/A,,Clear,110,2012-11-24 02:53:00
9:53 PM,41.0,14.0,33,30.44,10.0,SE,5.8,-,N/A,,Clear,140,2012-11-24 03:53:00
10:53 PM,41.0,14.0,33,30.43,10.0,South,3.5,-,N/A,,Clear,190,2012-11-24 04:53:00
11:53 PM,39.2,14.0,36,30.44,10.0,South,6.9,-,N/A,,Clear,190,2012-11-24 05:53:00